sensor_id;sensor_type;location;lat;lon;timestamp;temperature;humidity
33931;DHT22;20215;53.130;6.408;2022-08-19T00:00:26;26.20;63.30
33931;DHT22;20215;53.130;6.408;2022-08-19T00:02:53;26.10;63.20
33931;DHT22;20215;53.130;6.408;2022-08-19T00:05:19;26.10;63.20
33931;DHT22;20215;53.130;6.408;2022-08-19T00:07:45;26.20;63.30
33931;DHT22;20215;53.130;6.408;2022-08-19T00:10:13;26.10;63.20
33931;DHT22;20215;53.130;6.408;2022-08-19T00:12:39;26.10;63.30
33931;DHT22;20215;53.130;6.408;2022-08-19T00:15:10;26.10;63.20
33931;DHT22;20215;53.130;6.408;2022-08-19T00:17:41;26.10;63.20
33931;DHT22;20215;53.130;6.408;2022-08-19T00:20:08;26.10;63.30
33931;DHT22;20215;53.130;6.408;2022-08-19T00:22:36;26.10;63.30
33931;DHT22;20215;53.130;6.408;2022-08-19T00:25:02;26.10;63.30
33931;DHT22;20215;53.130;6.408;2022-08-19T00:27:27;26.10;63.30
33931;DHT22;20215;53.130;6.408;2022-08-19T00:29:53;26.10;63.30
33931;DHT22;20215;53.130;6.408;2022-08-19T00:32:19;26.00;63.20
33931;DHT22;20215;53.130;6.408;2022-08-19T00:34:46;26.00;63.20
33931;DHT22;20215;53.130;6.408;2022-08-19T00:37:12;26.10;63.30
33931;DHT22;20215;53.130;6.408;2022-08-19T00:39:38;26.10;63.30
33931;DHT22;20215;53.130;6.408;2022-08-19T00:42:04;26.10;63.30
33931;DHT22;20215;53.130;6.408;2022-08-19T00:44:31;26.00;63.20
33931;DHT22;20215;53.130;6.408;2022-08-19T00:46:58;26.00;63.20
33931;DHT22;20215;53.130;6.408;2022-08-19T00:49:28;26.00;63.20
33931;DHT22;20215;53.130;6.408;2022-08-19T00:52:03;26.00;63.20
33931;DHT22;20215;53.130;6.408;2022-08-19T00:54:29;26.00;63.20
33931;DHT22;20215;53.130;6.408;2022-08-19T00:56:57;26.00;63.20
33931;DHT22;20215;53.130;6.408;2022-08-19T00:59:23;26.00;63.30
33931;DHT22;20215;53.130;6.408;2022-08-19T01:01:49;26.00;63.30
33931;DHT22;20215;53.130;6.408;2022-08-19T01:04:14;26.00;63.20
33931;DHT22;20215;53.130;6.408;2022-08-19T01:06:41;25.90;63.20
33931;DHT22;20215;53.130;6.408;2022-08-19T01:09:08;26.00;63.30
33931;DHT22;20215;53.130;6.408;2022-08-19T01:11:37;25.90;63.20
33931;DHT22;20215;53.130;6.408;2022-08-19T01:14:05;25.90;63.30
33931;DHT22;20215;53.130;6.408;2022-08-19T01:16:32;25.90;63.20
33931;DHT22;20215;53.130;6.408;2022-08-19T01:18:59;25.90;63.30
33931;DHT22;20215;53.130;6.408;2022-08-19T01:21:34;25.90;63.20
33931;DHT22;20215;53.130;6.408;2022-08-19T01:24:02;25.90;63.20
33931;DHT22;20215;53.130;6.408;2022-08-19T01:26:28;25.90;63.30
33931;DHT22;20215;53.130;6.408;2022-08-19T01:28:58;25.90;63.20
33931;DHT22;20215;53.130;6.408;2022-08-19T01:31:26;25.90;63.30
33931;DHT22;20215;53.130;6.408;2022-08-19T01:33:56;25.90;63.30
33931;DHT22;20215;53.130;6.408;2022-08-19T01:36:35;25.90;63.30
33931;DHT22;20215;53.130;6.408;2022-08-19T01:39:05;25.90;63.30
33931;DHT22;20215;53.130;6.408;2022-08-19T01:41:31;25.90;63.30
33931;DHT22;20215;53.130;6.408;2022-08-19T01:43:57;25.80;63.20
33931;DHT22;20215;53.130;6.408;2022-08-19T01:46:22;25.80;63.20
33931;DHT22;20215;53.130;6.408;2022-08-19T01:48:48;25.80;63.20
33931;DHT22;20215;53.130;6.408;2022-08-19T01:51:14;25.80;63.20
33931;DHT22;20215;53.130;6.408;2022-08-19T01:53:40;25.80;63.20
33931;DHT22;20215;53.130;6.408;2022-08-19T01:56:06;25.80;63.20
33931;DHT22;20215;53.130;6.408;2022-08-19T01:58:34;25.80;63.20
33931;DHT22;20215;53.130;6.408;2022-08-19T02:01:02;25.80;63.20
33931;DHT22;20215;53.130;6.408;2022-08-19T02:03:28;25.80;63.20
33931;DHT22;20215;53.130;6.408;2022-08-19T02:05:58;25.80;63.30
33931;DHT22;20215;53.130;6.408;2022-08-19T02:08:26;25.80;63.20
33931;DHT22;20215;53.130;6.408;2022-08-19T02:10:52;25.80;63.30
33931;DHT22;20215;53.130;6.408;2022-08-19T02:13:19;25.80;63.30
33931;DHT22;20215;53.130;6.408;2022-08-19T02:15:45;25.70;63.20
33931;DHT22;20215;53.130;6.408;2022-08-19T02:18:10;25.80;63.20
33931;DHT22;20215;53.130;6.408;2022-08-19T02:20:37;25.70;63.10
33931;DHT22;20215;53.130;6.408;2022-08-19T02:23:03;25.70;63.20
33931;DHT22;20215;53.130;6.408;2022-08-19T02:25:29;25.70;63.20
33931;DHT22;20215;53.130;6.408;2022-08-19T02:27:54;25.70;63.20
33931;DHT22;20215;53.130;6.408;2022-08-19T02:30:20;25.70;63.20
33931;DHT22;20215;53.130;6.408;2022-08-19T02:32:46;25.70;63.20
33931;DHT22;20215;53.130;6.408;2022-08-19T02:35:13;25.70;63.20
33931;DHT22;20215;53.130;6.408;2022-08-19T02:37:40;25.70;63.20
33931;DHT22;20215;53.130;6.408;2022-08-19T02:40:25;25.70;63.30
33931;DHT22;20215;53.130;6.408;2022-08-19T02:42:51;25.70;63.30
33931;DHT22;20215;53.130;6.408;2022-08-19T02:45:16;25.60;63.20
33931;DHT22;20215;53.130;6.408;2022-08-19T02:47:42;25.60;63.20
33931;DHT22;20215;53.130;6.408;2022-08-19T02:50:08;25.60;63.20
33931;DHT22;20215;53.130;6.408;2022-08-19T02:52:34;25.60;63.10
33931;DHT22;20215;53.130;6.408;2022-08-19T02:54:59;25.60;63.10
33931;DHT22;20215;53.130;6.408;2022-08-19T02:57:26;25.60;63.20
33931;DHT22;20215;53.130;6.408;2022-08-19T02:59:52;25.60;63.20
33931;DHT22;20215;53.130;6.408;2022-08-19T03:02:17;25.60;63.20
33931;DHT22;20215;53.130;6.408;2022-08-19T03:04:43;25.60;63.20
33931;DHT22;20215;53.130;6.408;2022-08-19T03:07:09;25.60;63.10
33931;DHT22;20215;53.130;6.408;2022-08-19T03:09:37;25.60;63.10
33931;DHT22;20215;53.130;6.408;2022-08-19T03:12:04;25.60;63.10
33931;DHT22;20215;53.130;6.408;2022-08-19T03:14:33;25.60;63.20
33931;DHT22;20215;53.130;6.408;2022-08-19T03:16:59;25.60;63.20
33931;DHT22;20215;53.130;6.408;2022-08-19T03:19:24;25.60;63.20
33931;DHT22;20215;53.130;6.408;2022-08-19T03:21:51;25.50;63.10
33931;DHT22;20215;53.130;6.408;2022-08-19T03:24:18;25.60;63.20
33931;DHT22;20215;53.130;6.408;2022-08-19T03:26:54;25.60;63.20
33931;DHT22;20215;53.130;6.408;2022-08-19T03:29:24;25.60;63.20
33931;DHT22;20215;53.130;6.408;2022-08-19T03:31:50;25.50;63.10
33931;DHT22;20215;53.130;6.408;2022-08-19T03:34:29;25.50;63.20
33931;DHT22;20215;53.130;6.408;2022-08-19T03:36:56;25.50;63.10
33931;DHT22;20215;53.130;6.408;2022-08-19T03:39:24;25.50;63.20
33931;DHT22;20215;53.130;6.408;2022-08-19T03:41:51;25.50;63.10
33931;DHT22;20215;53.130;6.408;2022-08-19T03:44:20;25.50;63.10
33931;DHT22;20215;53.130;6.408;2022-08-19T03:46:48;25.50;63.10
33931;DHT22;20215;53.130;6.408;2022-08-19T03:49:15;25.50;63.10
33931;DHT22;20215;53.130;6.408;2022-08-19T03:51:42;25.50;63.10
33931;DHT22;20215;53.130;6.408;2022-08-19T03:54:09;25.50;63.10
33931;DHT22;20215;53.130;6.408;2022-08-19T03:56:37;25.50;63.30
33931;DHT22;20215;53.130;6.408;2022-08-19T03:59:05;25.50;63.10
33931;DHT22;20215;53.130;6.408;2022-08-19T04:01:31;25.50;63.10
33931;DHT22;20215;53.130;6.408;2022-08-19T04:03:57;25.50;63.10
33931;DHT22;20215;53.130;6.408;2022-08-19T04:06:29;25.50;63.10
33931;DHT22;20215;53.130;6.408;2022-08-19T04:08:56;25.50;63.10
33931;DHT22;20215;53.130;6.408;2022-08-19T04:11:26;25.40;63.00
33931;DHT22;20215;53.130;6.408;2022-08-19T04:13:52;25.40;63.00
33931;DHT22;20215;53.130;6.408;2022-08-19T04:16:20;25.40;63.00
33931;DHT22;20215;53.130;6.408;2022-08-19T04:18:47;25.40;63.00
33931;DHT22;20215;53.130;6.408;2022-08-19T04:21:19;25.40;63.00
33931;DHT22;20215;53.130;6.408;2022-08-19T04:23:45;25.40;63.00
33931;DHT22;20215;53.130;6.408;2022-08-19T04:26:20;25.40;63.00
33931;DHT22;20215;53.130;6.408;2022-08-19T04:28:47;25.40;63.00
33931;DHT22;20215;53.130;6.408;2022-08-19T04:31:29;25.40;63.00
33931;DHT22;20215;53.130;6.408;2022-08-19T04:33:59;25.40;63.00
33931;DHT22;20215;53.130;6.408;2022-08-19T04:36:29;25.40;63.00
33931;DHT22;20215;53.130;6.408;2022-08-19T04:38:57;25.40;63.10
33931;DHT22;20215;53.130;6.408;2022-08-19T04:41:23;25.40;63.10
33931;DHT22;20215;53.130;6.408;2022-08-19T04:44:08;25.30;62.90
33931;DHT22;20215;53.130;6.408;2022-08-19T04:46:34;25.40;63.10
33931;DHT22;20215;53.130;6.408;2022-08-19T04:49:01;25.40;63.10
33931;DHT22;20215;53.130;6.408;2022-08-19T04:51:27;25.30;62.90
33931;DHT22;20215;53.130;6.408;2022-08-19T04:53:53;25.40;63.00
33931;DHT22;20215;53.130;6.408;2022-08-19T04:56:20;25.40;62.90
33931;DHT22;20215;53.130;6.408;2022-08-19T04:58:47;25.40;62.90
33931;DHT22;20215;53.130;6.408;2022-08-19T05:01:22;25.40;62.90
33931;DHT22;20215;53.130;6.408;2022-08-19T05:03:48;25.30;62.80
33931;DHT22;20215;53.130;6.408;2022-08-19T05:06:16;25.40;62.90
33931;DHT22;20215;53.130;6.408;2022-08-19T05:08:43;25.30;62.80
33931;DHT22;20215;53.130;6.408;2022-08-19T05:11:16;25.40;62.80
33931;DHT22;20215;53.130;6.408;2022-08-19T05:13:43;25.40;62.70
33931;DHT22;20215;53.130;6.408;2022-08-19T05:16:11;25.40;62.70
33931;DHT22;20215;53.130;6.408;2022-08-19T05:18:38;25.40;62.70
33931;DHT22;20215;53.130;6.408;2022-08-19T05:21:23;25.40;62.70
33931;DHT22;20215;53.130;6.408;2022-08-19T05:24:08;25.40;62.80
33931;DHT22;20215;53.130;6.408;2022-08-19T05:26:35;25.40;62.50
33931;DHT22;20215;53.130;6.408;2022-08-19T05:29:00;25.30;62.60
33931;DHT22;20215;53.130;6.408;2022-08-19T05:31:26;25.40;62.60
33931;DHT22;20215;53.130;6.408;2022-08-19T05:33:51;25.30;62.50
33931;DHT22;20215;53.130;6.408;2022-08-19T05:36:17;25.40;62.40
33931;DHT22;20215;53.130;6.408;2022-08-19T05:38:45;25.40;62.70
33931;DHT22;20215;53.130;6.408;2022-08-19T05:41:13;25.40;62.40
33931;DHT22;20215;53.130;6.408;2022-08-19T05:43:41;25.40;62.80
33931;DHT22;20215;53.130;6.408;2022-08-19T05:46:07;25.40;63.10
33931;DHT22;20215;53.130;6.408;2022-08-19T05:48:34;25.40;63.50
33931;DHT22;20215;53.130;6.408;2022-08-19T05:51:06;25.40;63.50
33931;DHT22;20215;53.130;6.408;2022-08-19T05:53:33;25.40;63.50
33931;DHT22;20215;53.130;6.408;2022-08-19T05:56:07;25.40;63.50
33931;DHT22;20215;53.130;6.408;2022-08-19T05:58:34;25.40;63.90
33931;DHT22;20215;53.130;6.408;2022-08-19T06:00:59;25.40;63.30
33931;DHT22;20215;53.130;6.408;2022-08-19T06:03:32;25.50;63.20
33931;DHT22;20215;53.130;6.408;2022-08-19T06:05:59;25.50;63.20
33931;DHT22;20215;53.130;6.408;2022-08-19T06:08:25;25.40;63.00
33931;DHT22;20215;53.130;6.408;2022-08-19T06:10:52;25.50;63.00
33931;DHT22;20215;53.130;6.408;2022-08-19T06:13:18;25.50;63.00
33931;DHT22;20215;53.130;6.408;2022-08-19T06:15:45;25.50;62.90
33931;DHT22;20215;53.130;6.408;2022-08-19T06:18:12;25.50;62.80
33931;DHT22;20215;53.130;6.408;2022-08-19T06:20:38;25.50;62.70
33931;DHT22;20215;53.130;6.408;2022-08-19T06:23:03;25.50;62.70
33931;DHT22;20215;53.130;6.408;2022-08-19T06:25:29;25.60;62.60
33931;DHT22;20215;53.130;6.408;2022-08-19T06:27:55;25.60;62.60
33931;DHT22;20215;53.130;6.408;2022-08-19T06:30:21;25.60;62.50
33931;DHT22;20215;53.130;6.408;2022-08-19T06:32:47;25.60;62.40
33931;DHT22;20215;53.130;6.408;2022-08-19T06:35:12;25.60;62.40
33931;DHT22;20215;53.130;6.408;2022-08-19T06:37:40;25.60;62.30
33931;DHT22;20215;53.130;6.408;2022-08-19T06:40:07;25.60;62.20
33931;DHT22;20215;53.130;6.408;2022-08-19T06:42:34;25.60;62.20
33931;DHT22;20215;53.130;6.408;2022-08-19T06:45:00;25.60;62.10
33931;DHT22;20215;53.130;6.408;2022-08-19T06:47:28;25.70;62.20
33931;DHT22;20215;53.130;6.408;2022-08-19T06:49:55;25.70;62.20
33931;DHT22;20215;53.130;6.408;2022-08-19T06:52:25;25.70;62.10
33931;DHT22;20215;53.130;6.408;2022-08-19T06:54:52;25.70;62.10
33931;DHT22;20215;53.130;6.408;2022-08-19T06:57:17;25.70;62.10
33931;DHT22;20215;53.130;6.408;2022-08-19T06:59:43;25.70;62.00
33931;DHT22;20215;53.130;6.408;2022-08-19T07:02:09;25.70;62.00
33931;DHT22;20215;53.130;6.408;2022-08-19T07:04:35;25.80;62.00
33931;DHT22;20215;53.130;6.408;2022-08-19T07:07:08;25.80;62.00
33931;DHT22;20215;53.130;6.408;2022-08-19T07:09:35;25.80;61.90
33931;DHT22;20215;53.130;6.408;2022-08-19T07:12:05;25.80;61.90
33931;DHT22;20215;53.130;6.408;2022-08-19T07:14:32;25.80;61.80
33931;DHT22;20215;53.130;6.408;2022-08-19T07:17:01;25.80;62.30
33931;DHT22;20215;53.130;6.408;2022-08-19T07:19:26;25.90;61.80
33931;DHT22;20215;53.130;6.408;2022-08-19T07:21:54;25.90;61.70
33931;DHT22;20215;53.130;6.408;2022-08-19T07:24:22;25.90;61.70
33931;DHT22;20215;53.130;6.408;2022-08-19T07:26:49;25.90;61.50
33931;DHT22;20215;53.130;6.408;2022-08-19T07:29:16;25.90;61.50
33931;DHT22;20215;53.130;6.408;2022-08-19T07:31:42;26.00;61.50
33931;DHT22;20215;53.130;6.408;2022-08-19T07:34:10;26.00;61.40
33931;DHT22;20215;53.130;6.408;2022-08-19T07:36:38;26.00;61.30
33931;DHT22;20215;53.130;6.408;2022-08-19T07:39:12;26.00;61.30
33931;DHT22;20215;53.130;6.408;2022-08-19T07:41:38;26.10;61.30
33931;DHT22;20215;53.130;6.408;2022-08-19T07:44:07;26.00;61.20
33931;DHT22;20215;53.130;6.408;2022-08-19T07:46:36;26.10;61.10
33931;DHT22;20215;53.130;6.408;2022-08-19T07:49:03;26.10;61.10
33931;DHT22;20215;53.130;6.408;2022-08-19T07:51:29;26.10;61.10
33931;DHT22;20215;53.130;6.408;2022-08-19T07:53:55;26.20;61.00
33931;DHT22;20215;53.130;6.408;2022-08-19T07:56:21;26.20;61.00
33931;DHT22;20215;53.130;6.408;2022-08-19T07:58:50;26.20;60.90
33931;DHT22;20215;53.130;6.408;2022-08-19T08:01:24;26.30;60.90
33931;DHT22;20215;53.130;6.408;2022-08-19T08:03:51;26.30;60.80
33931;DHT22;20215;53.130;6.408;2022-08-19T08:06:36;26.30;60.80
33931;DHT22;20215;53.130;6.408;2022-08-19T08:09:40;26.30;60.80
33931;DHT22;20215;53.130;6.408;2022-08-19T08:12:15;26.40;60.60
33931;DHT22;20215;53.130;6.408;2022-08-19T08:14:49;26.40;60.60
33931;DHT22;20215;53.130;6.408;2022-08-19T08:17:18;26.40;60.60
33931;DHT22;20215;53.130;6.408;2022-08-19T08:19:45;26.40;60.50
33931;DHT22;20215;53.130;6.408;2022-08-19T08:22:14;26.40;60.40
33931;DHT22;20215;53.130;6.408;2022-08-19T08:25:25;26.50;60.40
33931;DHT22;20215;53.130;6.408;2022-08-19T08:27:51;26.50;60.20
33931;DHT22;20215;53.130;6.408;2022-08-19T08:30:20;26.50;60.30
33931;DHT22;20215;53.130;6.408;2022-08-19T08:32:47;26.60;60.30
33931;DHT22;20215;53.130;6.408;2022-08-19T08:35:16;26.60;60.20
33931;DHT22;20215;53.130;6.408;2022-08-19T08:37:47;26.60;60.10
33931;DHT22;20215;53.130;6.408;2022-08-19T08:40:26;26.60;60.00
33931;DHT22;20215;53.130;6.408;2022-08-19T08:45:30;26.70;60.00
33931;DHT22;20215;53.130;6.408;2022-08-19T08:48:02;26.70;59.90
33931;DHT22;20215;53.130;6.408;2022-08-19T08:50:39;26.70;59.80
33931;DHT22;20215;53.130;6.408;2022-08-19T08:53:08;26.70;59.70
33931;DHT22;20215;53.130;6.408;2022-08-19T08:55:36;26.80;59.80
33931;DHT22;20215;53.130;6.408;2022-08-19T08:58:07;26.80;59.70
33931;DHT22;20215;53.130;6.408;2022-08-19T09:00:38;26.80;59.70
33931;DHT22;20215;53.130;6.408;2022-08-19T09:03:24;26.80;59.60
33931;DHT22;20215;53.130;6.408;2022-08-19T09:05:59;26.80;59.50
33931;DHT22;20215;53.130;6.408;2022-08-19T09:11:05;26.80;59.50
33931;DHT22;20215;53.130;6.408;2022-08-19T09:16:05;26.90;59.50
33931;DHT22;20215;53.130;6.408;2022-08-19T09:18:44;26.80;59.70
33931;DHT22;20215;53.130;6.408;2022-08-19T09:21:11;26.80;59.60
33931;DHT22;20215;53.130;6.408;2022-08-19T09:23:38;26.90;59.60
33931;DHT22;20215;53.130;6.408;2022-08-19T09:26:08;26.90;59.50
33931;DHT22;20215;53.130;6.408;2022-08-19T09:28:34;26.90;59.30
33931;DHT22;20215;53.130;6.408;2022-08-19T09:31:00;27.00;59.40
33931;DHT22;20215;53.130;6.408;2022-08-19T09:33:26;27.00;59.30
33931;DHT22;20215;53.130;6.408;2022-08-19T09:36:02;27.10;59.20
33931;DHT22;20215;53.130;6.408;2022-08-19T09:38:28;27.10;59.00
33931;DHT22;20215;53.130;6.408;2022-08-19T09:40:54;27.20;59.00
33931;DHT22;20215;53.130;6.408;2022-08-19T09:43:19;27.20;58.80
33931;DHT22;20215;53.130;6.408;2022-08-19T09:45:45;27.20;58.70
33931;DHT22;20215;53.130;6.408;2022-08-19T09:48:11;27.30;58.60
33931;DHT22;20215;53.130;6.408;2022-08-19T09:50:36;27.40;58.50
33931;DHT22;20215;53.130;6.408;2022-08-19T09:53:04;27.40;58.40
33931;DHT22;20215;53.130;6.408;2022-08-19T09:55:32;27.50;58.20
33931;DHT22;20215;53.130;6.408;2022-08-19T09:58:01;27.50;58.10
33931;DHT22;20215;53.130;6.408;2022-08-19T10:00:27;27.50;57.90
33931;DHT22;20215;53.130;6.408;2022-08-19T10:02:53;27.60;57.90
33931;DHT22;20215;53.130;6.408;2022-08-19T10:05:21;27.70;57.70
33931;DHT22;20215;53.130;6.408;2022-08-19T10:08:07;27.70;57.50
33931;DHT22;20215;53.130;6.408;2022-08-19T10:10:35;27.80;57.40
33931;DHT22;20215;53.130;6.408;2022-08-19T10:13:01;27.80;57.20
33931;DHT22;20215;53.130;6.408;2022-08-19T10:15:26;27.90;57.10
33931;DHT22;20215;53.130;6.408;2022-08-19T10:17:52;28.00;56.90
33931;DHT22;20215;53.130;6.408;2022-08-19T10:20:18;28.00;56.80
33931;DHT22;20215;53.130;6.408;2022-08-19T10:22:43;28.10;56.60
33931;DHT22;20215;53.130;6.408;2022-08-19T10:25:09;28.20;56.40
33931;DHT22;20215;53.130;6.408;2022-08-19T10:27:35;28.30;56.10
33931;DHT22;20215;53.130;6.408;2022-08-19T10:30:00;28.30;55.90
33931;DHT22;20215;53.130;6.408;2022-08-19T10:32:26;28.30;55.80
33931;DHT22;20215;53.130;6.408;2022-08-19T10:34:54;28.40;55.70
33931;DHT22;20215;53.130;6.408;2022-08-19T10:37:21;28.50;55.60
33931;DHT22;20215;53.130;6.408;2022-08-19T10:39:47;28.60;55.40
33931;DHT22;20215;53.130;6.408;2022-08-19T10:42:16;28.70;55.20
33931;DHT22;20215;53.130;6.408;2022-08-19T10:44:44;28.90;54.90
33931;DHT22;20215;53.130;6.408;2022-08-19T10:47:10;29.00;54.50
33931;DHT22;20215;53.130;6.408;2022-08-19T10:49:36;29.10;54.10
33931;DHT22;20215;53.130;6.408;2022-08-19T10:52:21;29.30;54.30
33931;DHT22;20215;53.130;6.408;2022-08-19T10:55:01;29.40;53.70
33931;DHT22;20215;53.130;6.408;2022-08-19T10:57:45;29.50;53.30
33931;DHT22;20215;53.130;6.408;2022-08-19T11:00:11;29.60;53.20
33931;DHT22;20215;53.130;6.408;2022-08-19T11:02:37;29.70;52.90
33931;DHT22;20215;53.130;6.408;2022-08-19T11:05:02;29.80;52.60
33931;DHT22;20215;53.130;6.408;2022-08-19T11:07:28;30.00;52.30
33931;DHT22;20215;53.130;6.408;2022-08-19T11:09:54;30.20;52.10
33931;DHT22;20215;53.130;6.408;2022-08-19T11:12:20;30.30;51.90
33931;DHT22;20215;53.130;6.408;2022-08-19T11:14:45;30.50;51.40
33931;DHT22;20215;53.130;6.408;2022-08-19T11:17:11;30.60;50.90
33931;DHT22;20215;53.130;6.408;2022-08-19T11:19:38;30.80;50.60
33931;DHT22;20215;53.130;6.408;2022-08-19T11:22:07;31.00;50.30
33931;DHT22;20215;53.130;6.408;2022-08-19T11:24:33;31.10;49.70
33931;DHT22;20215;53.130;6.408;2022-08-19T11:27:07;31.10;49.70
33931;DHT22;20215;53.130;6.408;2022-08-19T11:29:35;31.00;49.60
33931;DHT22;20215;53.130;6.408;2022-08-19T11:32:08;31.10;49.60
33931;DHT22;20215;53.130;6.408;2022-08-19T11:34:35;31.10;49.40
33931;DHT22;20215;53.130;6.408;2022-08-19T11:37:02;30.90;49.50
33931;DHT22;20215;53.130;6.408;2022-08-19T11:39:31;30.70;50.00
33931;DHT22;20215;53.130;6.408;2022-08-19T11:42:00;30.40;50.40
33931;DHT22;20215;53.130;6.408;2022-08-19T11:44:28;30.20;51.00
33931;DHT22;20215;53.130;6.408;2022-08-19T11:46:56;30.00;51.60
33931;DHT22;20215;53.130;6.408;2022-08-19T11:49:21;29.70;52.00
33931;DHT22;20215;53.130;6.408;2022-08-19T11:51:48;29.50;52.60
33931;DHT22;20215;53.130;6.408;2022-08-19T11:54:15;29.30;53.10
33931;DHT22;20215;53.130;6.408;2022-08-19T11:56:42;29.10;53.20
33931;DHT22;20215;53.130;6.408;2022-08-19T11:59:08;29.10;53.90
33931;DHT22;20215;53.130;6.408;2022-08-19T12:01:36;29.00;54.20
33931;DHT22;20215;53.130;6.408;2022-08-19T12:04:02;28.90;54.20
33931;DHT22;20215;53.130;6.408;2022-08-19T12:06:32;28.90;54.40
33931;DHT22;20215;53.130;6.408;2022-08-19T12:09:03;29.00;54.40
33931;DHT22;20215;53.130;6.408;2022-08-19T12:11:31;29.10;54.50
33931;DHT22;20215;53.130;6.408;2022-08-19T12:13:57;31.10;51.40
33931;DHT22;20215;53.130;6.408;2022-08-19T12:16:26;31.30;49.80
33931;DHT22;20215;53.130;6.408;2022-08-19T12:18:53;31.10;49.90
33931;DHT22;20215;53.130;6.408;2022-08-19T12:21:22;30.70;50.20
33931;DHT22;20215;53.130;6.408;2022-08-19T12:23:51;30.20;51.00
33931;DHT22;20215;53.130;6.408;2022-08-19T12:26:17;29.80;51.90
33931;DHT22;20215;53.130;6.408;2022-08-19T12:28:44;29.60;52.70
33931;DHT22;20215;53.130;6.408;2022-08-19T12:31:10;29.40;53.00
33931;DHT22;20215;53.130;6.408;2022-08-19T12:33:40;29.40;53.30
33931;DHT22;20215;53.130;6.408;2022-08-19T12:36:10;29.30;53.20
33931;DHT22;20215;53.130;6.408;2022-08-19T12:38:36;29.20;53.30
33931;DHT22;20215;53.130;6.408;2022-08-19T12:41:03;29.10;53.80
33931;DHT22;20215;53.130;6.408;2022-08-19T12:43:31;29.00;54.10
33931;DHT22;20215;53.130;6.408;2022-08-19T12:45:57;28.80;54.50
33931;DHT22;20215;53.130;6.408;2022-08-19T12:48:23;28.70;54.90
33931;DHT22;20215;53.130;6.408;2022-08-19T12:50:48;28.60;55.30
33931;DHT22;20215;53.130;6.408;2022-08-19T12:53:14;28.60;55.60
33931;DHT22;20215;53.130;6.408;2022-08-19T12:55:41;28.50;55.90
33931;DHT22;20215;53.130;6.408;2022-08-19T12:58:08;28.40;55.80
33931;DHT22;20215;53.130;6.408;2022-08-19T13:00:34;28.40;55.70
33931;DHT22;20215;53.130;6.408;2022-08-19T13:03:00;28.30;55.70
33931;DHT22;20215;53.130;6.408;2022-08-19T13:05:28;28.30;55.90
33931;DHT22;20215;53.130;6.408;2022-08-19T13:07:56;28.40;56.10
33931;DHT22;20215;53.130;6.408;2022-08-19T13:10:23;28.80;55.60
33931;DHT22;20215;53.130;6.408;2022-08-19T13:12:51;29.00;55.00
33931;DHT22;20215;53.130;6.408;2022-08-19T13:15:19;29.40;54.20
33931;DHT22;20215;53.130;6.408;2022-08-19T13:17:50;30.40;52.60
33931;DHT22;20215;53.130;6.408;2022-08-19T13:20:18;30.20;52.20
33931;DHT22;20215;53.130;6.408;2022-08-19T13:22:45;29.80;53.10
33931;DHT22;20215;53.130;6.408;2022-08-19T13:25:12;29.30;54.40
33931;DHT22;20215;53.130;6.408;2022-08-19T13:27:38;29.00;55.40
33931;DHT22;20215;53.130;6.408;2022-08-19T13:30:05;28.70;56.00
33931;DHT22;20215;53.130;6.408;2022-08-19T13:32:50;28.50;56.40
33931;DHT22;20215;53.130;6.408;2022-08-19T13:35:34;28.30;57.00
33931;DHT22;20215;53.130;6.408;2022-08-19T13:37:59;28.20;57.50
33931;DHT22;20215;53.130;6.408;2022-08-19T13:40:30;28.10;57.80
33931;DHT22;20215;53.130;6.408;2022-08-19T13:43:00;28.00;58.10
33931;DHT22;20215;53.130;6.408;2022-08-19T13:45:28;27.90;58.30
33931;DHT22;20215;53.130;6.408;2022-08-19T13:47:55;27.90;58.50
33931;DHT22;20215;53.130;6.408;2022-08-19T13:50:25;27.80;58.60
33931;DHT22;20215;53.130;6.408;2022-08-19T13:52:51;27.70;58.70
33931;DHT22;20215;53.130;6.408;2022-08-19T13:55:17;27.70;58.80
33931;DHT22;20215;53.130;6.408;2022-08-19T13:57:43;27.70;59.00
33931;DHT22;20215;53.130;6.408;2022-08-19T14:00:15;27.70;59.10
33931;DHT22;20215;53.130;6.408;2022-08-19T14:02:44;27.70;59.10
33931;DHT22;20215;53.130;6.408;2022-08-19T14:05:13;27.70;59.00
33931;DHT22;20215;53.130;6.408;2022-08-19T14:07:39;27.70;58.90
33931;DHT22;20215;53.130;6.408;2022-08-19T14:10:06;27.80;59.00
33931;DHT22;20215;53.130;6.408;2022-08-19T14:12:33;27.80;58.90
33931;DHT22;20215;53.130;6.408;2022-08-19T14:14:59;27.80;58.70
33931;DHT22;20215;53.130;6.408;2022-08-19T14:17:24;27.80;58.70
33931;DHT22;20215;53.130;6.408;2022-08-19T14:19:59;27.90;58.70
33931;DHT22;20215;53.130;6.408;2022-08-19T14:22:32;27.80;59.20
33931;DHT22;20215;53.130;6.408;2022-08-19T14:24:58;27.80;58.80
33931;DHT22;20215;53.130;6.408;2022-08-19T14:27:24;27.80;58.90
33931;DHT22;20215;53.130;6.408;2022-08-19T14:29:51;27.80;58.90
33931;DHT22;20215;53.130;6.408;2022-08-19T14:32:17;27.90;58.80
33931;DHT22;20215;53.130;6.408;2022-08-19T14:34:43;27.90;58.60
33931;DHT22;20215;53.130;6.408;2022-08-19T14:37:12;28.00;58.40
33931;DHT22;20215;53.130;6.408;2022-08-19T14:39:42;28.10;58.20
33931;DHT22;20215;53.130;6.408;2022-08-19T14:42:10;28.20;58.00
33931;DHT22;20215;53.130;6.408;2022-08-19T14:44:37;28.30;57.70
33931;DHT22;20215;53.130;6.408;2022-08-19T14:47:03;28.40;57.60
33931;DHT22;20215;53.130;6.408;2022-08-19T14:49:29;28.40;57.40
33931;DHT22;20215;53.130;6.408;2022-08-19T14:51:55;28.50;57.30
33931;DHT22;20215;53.130;6.408;2022-08-19T14:54:21;28.60;57.20
33931;DHT22;20215;53.130;6.408;2022-08-19T14:56:47;28.60;57.00
33931;DHT22;20215;53.130;6.408;2022-08-19T14:59:14;28.70;56.80
33931;DHT22;20215;53.130;6.408;2022-08-19T15:01:39;28.90;56.50
33931;DHT22;20215;53.130;6.408;2022-08-19T15:04:05;29.10;56.10
33931;DHT22;20215;53.130;6.408;2022-08-19T15:06:31;29.10;55.70
33931;DHT22;20215;53.130;6.408;2022-08-19T15:08:57;29.10;55.60
33931;DHT22;20215;53.130;6.408;2022-08-19T15:11:24;29.10;55.70
33931;DHT22;20215;53.130;6.408;2022-08-19T15:13:50;29.00;55.70
33931;DHT22;20215;53.130;6.408;2022-08-19T15:16:17;29.00;55.80
33931;DHT22;20215;53.130;6.408;2022-08-19T15:18:44;28.90;55.90
33931;DHT22;20215;53.130;6.408;2022-08-19T15:21:12;29.00;55.60
33931;DHT22;20215;53.130;6.408;2022-08-19T15:23:38;29.00;55.50
33931;DHT22;20215;53.130;6.408;2022-08-19T15:26:04;29.00;55.40
33931;DHT22;20215;53.130;6.408;2022-08-19T15:28:30;28.90;55.50
33931;DHT22;20215;53.130;6.408;2022-08-19T15:30:58;28.90;55.70
33931;DHT22;20215;53.130;6.408;2022-08-19T15:33:24;28.90;55.80
33931;DHT22;20215;53.130;6.408;2022-08-19T15:35:50;28.80;55.60
33931;DHT22;20215;53.130;6.408;2022-08-19T15:38:16;28.80;55.80
33931;DHT22;20215;53.130;6.408;2022-08-19T15:40:46;28.80;55.80
33931;DHT22;20215;53.130;6.408;2022-08-19T15:43:13;28.70;55.90